createdAt,value
2016-07-20T00:00:14.676Z,74.91
2016-07-20T00:01:14.669Z,74.91
2016-07-20T00:02:13.957Z,74.91
2016-07-20T00:03:13.945Z,75.65
2016-07-20T00:04:14.646Z,75.26
2016-07-20T00:05:13.930Z,75.55
2016-07-20T00:06:13.925Z,75.45
2016-07-20T00:07:14.623Z,75.93
2016-07-20T00:08:13.911Z,75.74
2016-07-20T00:09:14.616Z,76.13
2016-07-20T00:10:13.892Z,76.32
2016-07-20T00:11:13.888Z,75.74
2016-07-20T00:12:13.882Z,76.23
2016-07-20T00:13:13.873Z,76.13
2016-07-20T00:14:13.863Z,76.13
2016-07-20T00:15:14.562Z,76.03
2016-07-20T00:16:13.852Z,75.93
2016-07-20T00:17:13.849Z,75.65
2016-07-20T00:18:13.837Z,76.32
2016-07-20T00:19:14.534Z,76.23
2016-07-20T00:20:13.823Z,76.71
2016-07-20T00:21:13.813Z,76.42
2016-07-20T00:22:13.803Z,75.74
2016-07-20T00:23:14.504Z,76.03
2016-07-20T00:24:14.497Z,76.32
2016-07-20T00:25:13.784Z,76.03
2016-07-20T00:26:13.777Z,75.74
2016-07-20T00:27:13.767Z,75.55
2016-07-20T00:28:13.761Z,75.93
2016-07-20T00:29:13.751Z,76.9
2016-07-20T00:30:13.749Z,76.13
2016-07-20T00:31:13.738Z,76.51
2016-07-20T00:32:14.437Z,76.03
2016-07-20T00:33:13.725Z,75.93
2016-07-20T00:34:14.422Z,76.42
2016-07-20T00:35:13.711Z,76.23
2016-07-20T00:36:14.404Z,76.71
2016-07-20T00:37:13.694Z,76.9
2016-07-20T00:38:13.686Z,76.8
2016-07-20T00:39:13.689Z,76.86
2016-07-20T00:40:14.377Z,76.76
2016-07-20T00:41:13.667Z,76.67
2016-07-20T00:42:13.656Z,76.38
2016-07-20T00:43:13.650Z,76.76
2016-07-20T00:44:13.639Z,77.63
2016-07-20T00:45:13.632Z,77.15
2016-07-20T00:46:14.333Z,77.25
2016-07-20T00:47:14.323Z,76.86
2016-07-20T00:48:13.607Z,76.57
2016-07-20T00:49:14.311Z,77.34
2016-07-20T00:50:13.596Z,77.15
2016-07-20T00:51:13.587Z,77.44
2016-07-20T00:52:14.289Z,77.34
2016-07-20T00:53:14.279Z,77.44
2016-07-20T00:54:13.567Z,77.44
2016-07-20T00:55:14.265Z,77.25
2016-07-20T00:56:13.549Z,77.15
2016-07-20T00:57:14.248Z,77.73
2016-07-20T00:58:13.535Z,77.63
2016-07-20T00:59:14.234Z,77.44
2016-07-20T01:00:13.522Z,77.53
2016-07-20T01:01:14.220Z,77.06
2016-07-20T01:02:14.211Z,77.53
2016-07-20T01:03:14.202Z,77.34
2016-07-20T01:04:14.199Z,77.34
2016-07-20T01:05:13.479Z,77.15
2016-07-20T01:06:14.185Z,77.34
2016-07-20T01:07:13.466Z,78.11
2016-07-20T01:08:13.460Z,77.73
2016-07-20T01:09:13.452Z,77.53
2016-07-20T01:10:13.443Z,77.63
2016-07-20T01:11:14.143Z,77.34
2016-07-20T01:12:14.140Z,76.92
2016-07-20T01:13:13.423Z,77.06
2016-07-20T01:14:14.120Z,76.96
2016-07-20T01:15:13.410Z,77.5
2016-07-20T01:16:13.399Z,77.15
2016-07-20T01:17:14.100Z,77.34
2016-07-20T01:18:13.382Z,77.11
2016-07-20T01:19:13.376Z,77.25
2016-07-20T01:20:13.370Z,77.25
2016-07-20T01:21:13.369Z,76.96
2016-07-20T01:22:13.351Z,78.02
2016-07-20T01:23:13.346Z,77.83
2016-07-20T01:24:13.333Z,76.96
2016-07-20T01:25:13.329Z,77.53
2016-07-20T01:26:14.026Z,77.34
2016-07-20T01:27:13.315Z,77.34
2016-07-20T01:28:13.306Z,77.31
2016-07-20T01:29:14.005Z,77.5
2016-07-20T01:30:13.294Z,76.92
2016-07-20T01:31:13.283Z,77.63
2016-07-20T01:32:13.328Z,78.11
2016-07-20T01:33:13.267Z,77.78
2016-07-20T01:34:13.258Z,77.59
2016-07-20T01:35:13.963Z,77.88
2016-07-20T01:36:13.957Z,77.78
2016-07-20T01:37:13.944Z,77.78
2016-07-20T01:38:13.229Z,77.88
2016-07-20T01:39:13.221Z,77.69
2016-07-20T01:40:13.216Z,78.27
2016-07-20T01:41:13.914Z,77.98
2016-07-20T01:42:13.199Z,77.73
2016-07-20T01:43:13.897Z,78.46
2016-07-20T01:44:13.894Z,78.36
2016-07-20T01:45:13.175Z,78.75
2016-07-20T01:46:13.171Z,78.46
2016-07-20T01:47:13.161Z,78.56
2016-07-20T01:48:13.156Z,78.08
2016-07-20T01:49:13.853Z,78.36
2016-07-20T01:50:13.139Z,78.36
2016-07-20T01:51:13.130Z,78.27
2016-07-20T01:52:13.122Z,78.56
2016-07-20T01:53:13.820Z,78.56
2016-07-20T01:54:13.111Z,78.27
2016-07-20T01:55:13.101Z,78.36
2016-07-20T01:56:13.799Z,78.27
2016-07-20T01:57:13.085Z,78.75
2016-07-20T01:58:13.075Z,79.03
2016-07-20T01:59:13.070Z,78.65
2016-07-20T02:00:13.061Z,78.94
2016-07-20T02:01:13.764Z,78.65
2016-07-20T02:02:13.756Z,78.36
2016-07-20T02:03:13.749Z,78.75
2016-07-20T02:04:13.029Z,79.13
2016-07-20T02:05:13.021Z,78.46
2016-07-20T02:06:13.016Z,78.75
2016-07-20T02:07:13.007Z,79.23
2016-07-20T02:08:13.003Z,79.03
2016-07-20T02:09:13.698Z,78.94
2016-07-20T02:10:12.981Z,79.13
2016-07-20T02:11:12.974Z,79.81
2016-07-20T02:12:12.969Z,79.23
2016-07-20T02:13:12.962Z,79.28
2016-07-20T02:14:13.660Z,79.52
2016-07-20T02:15:12.942Z,80
2016-07-20T02:16:12.939Z,78.94
2016-07-20T02:17:12.930Z,79.52
2016-07-20T02:18:12.917Z,79.71
2016-07-20T02:19:12.914Z,78.85
2016-07-20T02:20:12.908Z,79.03
2016-07-20T02:21:12.909Z,79.23
2016-07-20T02:22:12.892Z,79.33
2016-07-20T02:23:12.881Z,79.03
2016-07-20T02:24:12.883Z,79.13
2016-07-20T02:25:12.868Z,78.94
2016-07-20T02:26:12.859Z,79.43
2016-07-20T02:27:12.852Z,78.85
2016-07-20T02:28:13.548Z,78.9
2016-07-20T02:29:12.839Z,79.48
2016-07-20T02:30:13.538Z,79.1
2016-07-20T02:31:12.820Z,79.1
2016-07-20T02:32:13.521Z,79.28
2016-07-20T02:33:12.806Z,79.48
2016-07-20T02:34:12.797Z,79.58
2016-07-20T02:35:13.497Z,79.28
2016-07-20T02:36:12.781Z,79.28
2016-07-20T02:37:13.683Z,79
2016-07-20T02:38:13.475Z,79.67
2016-07-20T02:39:12.758Z,79.71
2016-07-20T02:40:12.750Z,79.48
2016-07-20T02:41:12.746Z,79.48
2016-07-20T02:42:12.736Z,79.77
2016-07-20T02:43:13.435Z,79.58
2016-07-20T02:44:13.427Z,79.86
2016-07-20T02:45:12.718Z,79.58
2016-07-20T02:46:12.760Z,79.67
2016-07-20T02:47:13.404Z,79.86
2016-07-20T02:48:12.686Z,80.44
2016-07-20T02:49:12.680Z,80.35
2016-07-20T02:50:12.674Z,80.35
2016-07-20T02:51:12.663Z,80.35
2016-07-20T02:52:13.374Z,80.54
2016-07-20T02:53:13.358Z,80.25
2016-07-20T02:54:12.642Z,79.96
2016-07-20T02:55:13.365Z,80.35
2016-07-20T02:56:13.339Z,80.44
2016-07-20T02:57:12.617Z,79.96
2016-07-20T02:58:13.314Z,80.54
2016-07-20T02:59:12.602Z,80.35
2016-07-20T03:00:13.298Z,80.15
2016-07-20T03:01:12.584Z,80.73
2016-07-20T03:02:12.578Z,80.25
2016-07-20T03:03:12.566Z,80.44
2016-07-20T03:04:12.560Z,80.54
2016-07-20T03:05:12.554Z,80.73
2016-07-20T03:06:12.541Z,80.92
2016-07-20T03:07:12.539Z,81.3
2016-07-20T03:08:12.533Z,80.92
2016-07-20T03:09:12.518Z,80.92
2016-07-20T03:10:12.513Z,81.3
2016-07-20T03:11:12.508Z,81.3
2016-07-20T03:12:13.204Z,81.12
2016-07-20T03:13:12.488Z,81.4
2016-07-20T03:14:13.187Z,81.02
2016-07-20T03:15:12.475Z,81.6
2016-07-20T03:16:12.468Z,80.63
2016-07-20T03:17:12.459Z,80.83
2016-07-20T03:18:12.447Z,80.83
2016-07-20T03:19:13.148Z,81.4
2016-07-20T03:20:12.435Z,81.02
2016-07-20T03:21:12.423Z,81.02
2016-07-20T03:22:13.137Z,81.12
2016-07-20T03:23:12.408Z,81.5
2016-07-20T03:24:13.105Z,81.46
2016-07-20T03:25:12.393Z,81.07
2016-07-20T03:26:13.094Z,81.17
2016-07-20T03:27:13.084Z,81.56
2016-07-20T03:28:12.370Z,81.65
2016-07-20T03:29:13.071Z,81.56
2016-07-20T03:30:13.060Z,81.37
2016-07-20T03:31:12.350Z,81.46
2016-07-20T03:32:13.040Z,81.37
2016-07-20T03:33:13.034Z,81.37
2016-07-20T03:34:13.023Z,81.46
2016-07-20T03:35:12.312Z,81.37
2016-07-20T03:36:12.305Z,81.65
2016-07-20T03:37:12.292Z,81.65
2016-07-20T03:38:12.999Z,81.94
2016-07-20T03:39:12.285Z,81.46
2016-07-20T03:40:12.268Z,81.56
2016-07-20T03:41:12.969Z,82.14
2016-07-20T03:42:12.256Z,82.23
2016-07-20T03:43:12.245Z,82.14
2016-07-20T03:44:12.241Z,81.65
2016-07-20T03:45:12.231Z,82.04
2016-07-20T03:46:12.220Z,81.65
2016-07-20T03:47:12.214Z,81.56
2016-07-20T03:48:12.206Z,82.23
2016-07-20T03:49:12.904Z,81.94
2016-07-20T03:50:12.189Z,82.42
2016-07-20T03:51:12.234Z,82.32
2016-07-20T03:52:12.173Z,81.94
2016-07-20T03:53:12.164Z,82.14
2016-07-20T03:54:12.205Z,82.61
2016-07-20T03:55:12.160Z,82.61
2016-07-20T03:56:12.847Z,81.94
2016-07-20T03:57:12.834Z,81.94
2016-07-20T03:58:12.126Z,82.48
2016-07-20T03:59:12.120Z,82.38
2016-07-20T04:00:12.109Z,82.48
2016-07-20T04:01:12.099Z,82.52
2016-07-20T04:02:12.151Z,82.52
2016-07-20T04:03:12.797Z,82.61
2016-07-20T04:04:12.072Z,82.71
2016-07-20T04:05:12.067Z,81.94
2016-07-20T04:06:12.070Z,82.52
2016-07-20T04:07:12.049Z,82.48
2016-07-20T04:08:12.042Z,82.38
2016-07-20T04:09:12.033Z,82.61
2016-07-20T04:10:12.025Z,82.32
2016-07-20T04:11:12.021Z,82.61
2016-07-20T04:12:12.714Z,82.61
2016-07-20T04:13:12.000Z,82.71
2016-07-20T04:14:11.990Z,82.61
2016-07-20T04:15:12.692Z,82.42
2016-07-20T04:16:11.974Z,82.32
2016-07-20T04:17:11.968Z,82.81
2016-07-20T04:18:12.666Z,82.23
2016-07-20T04:19:11.950Z,82.42
2016-07-20T04:20:11.948Z,82.61
2016-07-20T04:21:11.938Z,82.32
2016-07-20T04:22:11.971Z,82.42
2016-07-20T04:23:11.918Z,82.81
2016-07-20T04:24:11.910Z,81.94
2016-07-20T04:25:11.905Z,82.42
2016-07-20T04:26:11.892Z,82.14
2016-07-20T04:27:11.889Z,83
2016-07-20T04:28:11.879Z,82.9
2016-07-20T04:29:12.574Z,82.52
2016-07-20T04:30:11.863Z,82.52
2016-07-20T04:31:11.852Z,82.32
2016-07-20T04:32:12.554Z,82.52
2016-07-20T04:33:11.835Z,81.94
2016-07-20T04:34:11.827Z,82.14
2016-07-20T04:35:11.821Z,82.42
2016-07-20T04:36:11.816Z,81.94
2016-07-20T04:37:12.713Z,81.79
2016-07-20T04:38:11.795Z,81.7
2016-07-20T04:39:11.786Z,82.14
2016-07-20T04:40:11.781Z,82.46
2016-07-20T04:41:11.830Z,82.08
2016-07-20T04:42:12.482Z,81.7
2016-07-20T04:43:11.763Z,82.46
2016-07-20T04:44:12.454Z,81.6
2016-07-20T04:45:11.743Z,81.5
2016-07-20T04:46:11.738Z,81.5
2016-07-20T04:47:11.731Z,81.5
2016-07-20T04:48:12.430Z,81.3
2016-07-20T04:49:11.708Z,81.12
2016-07-20T04:50:11.698Z,81.5
2016-07-20T04:51:11.689Z,81.4
2016-07-20T04:52:11.695Z,81.21
2016-07-20T04:53:11.672Z,81.02
2016-07-20T04:54:11.674Z,80.92
2016-07-20T04:55:11.663Z,81.4
2016-07-20T04:56:11.652Z,81.3
2016-07-20T04:57:11.643Z,81.3
2016-07-20T04:58:12.339Z,81.4
2016-07-20T04:59:12.336Z,80.83
2016-07-20T05:00:12.326Z,81.02
2016-07-20T05:01:11.609Z,81.16
2016-07-20T05:02:12.310Z,81.02
2016-07-20T05:03:12.300Z,81.3
2016-07-20T05:04:11.587Z,81.35
2016-07-20T05:05:11.586Z,81.02
2016-07-20T05:06:11.573Z,81.02
2016-07-20T05:07:11.564Z,81.21
2016-07-20T05:08:12.263Z,81.21
2016-07-20T05:09:11.545Z,80.83
2016-07-20T05:10:11.550Z,80.63
2016-07-20T05:11:11.535Z,80.83
2016-07-20T05:12:11.523Z,80.87
2016-07-20T05:13:12.229Z,81.54
2016-07-20T05:14:11.513Z,81.06
2016-07-20T05:15:11.499Z,81.45
2016-07-20T05:16:12.215Z,81.06
2016-07-20T05:17:12.194Z,80.48
2016-07-20T05:18:11.476Z,80.96
2016-07-20T05:19:11.469Z,80.19
2016-07-20T05:20:12.168Z,80.29
2016-07-20T05:21:11.451Z,80.19
2016-07-20T05:22:12.625Z,80.1
2016-07-20T05:23:11.441Z,79.9
2016-07-20T05:24:12.140Z,80.38
2016-07-20T05:25:12.141Z,80.48
2016-07-20T05:26:11.414Z,80.58
2016-07-20T05:27:12.118Z,80.58
2016-07-20T05:28:11.398Z,81.16
2016-07-20T05:29:11.390Z,80.58
2016-07-20T05:30:11.386Z,80.1
2016-07-20T05:31:12.086Z,80.19
2016-07-20T05:32:12.077Z,80.68
2016-07-20T05:33:11.359Z,80.68
2016-07-20T05:34:12.060Z,80.62
2016-07-20T05:35:11.343Z,80.38
2016-07-20T05:36:11.336Z,80.33
2016-07-20T05:37:12.040Z,80.62
2016-07-20T05:38:11.322Z,81.01
2016-07-20T05:39:12.021Z,80.81
2016-07-20T05:40:11.304Z,80.81
2016-07-20T05:41:12.011Z,80.43
2016-07-20T05:42:11.290Z,80.23
2016-07-20T05:43:11.285Z,80.04
2016-07-20T05:44:11.275Z,80.43
2016-07-20T05:45:11.266Z,80.62
2016-07-20T05:46:11.259Z,80.23
2016-07-20T05:47:11.252Z,80.14
2016-07-20T05:48:11.950Z,80.52
2016-07-20T05:49:11.948Z,80.46
2016-07-20T05:50:11.938Z,80.66
2016-07-20T05:51:11.933Z,79.6
2016-07-20T05:52:11.219Z,79.41
2016-07-20T05:53:11.212Z,79.79
2016-07-20T05:54:11.201Z,79.6
2016-07-20T05:55:11.197Z,79.69
2016-07-20T05:56:11.892Z,78.83
2016-07-20T05:57:11.178Z,77.76
2016-07-20T05:58:11.877Z,77.76
2016-07-20T05:59:11.871Z,77.96
2016-07-20T06:00:11.158Z,78.73
2016-07-20T06:01:11.851Z,79.02
2016-07-20T06:02:11.848Z,77.48
2016-07-20T06:03:11.839Z,77.28
2016-07-20T06:04:11.127Z,76.93
2016-07-20T06:05:11.119Z,76.36
2016-07-20T06:06:11.108Z,76.26
2016-07-20T06:07:11.105Z,75.88
2016-07-20T06:08:11.803Z,76.75
2016-07-20T06:09:11.090Z,76.65
2016-07-20T06:10:11.081Z,75.72
2016-07-20T06:11:11.074Z,76.01
2016-07-20T06:12:11.772Z,76.1
2016-07-20T06:13:11.059Z,76.1
2016-07-20T06:14:11.761Z,75.92
2016-07-20T06:15:11.752Z,75.62
2016-07-20T06:16:11.745Z,75.05
2016-07-20T06:17:11.735Z,75.05
2016-07-20T06:18:11.729Z,75.62
2016-07-20T06:19:11.018Z,74.69
2016-07-20T06:20:11.716Z,75.18
2016-07-20T06:21:10.999Z,74.12
2016-07-20T06:22:10.991Z,74.21
2016-07-20T06:23:11.693Z,75.09
2016-07-20T06:24:10.978Z,74.6
2016-07-20T06:25:10.972Z,74.21
2016-07-20T06:26:10.968Z,73.83
2016-07-20T06:27:10.956Z,74.41
2016-07-20T06:28:10.949Z,73.54
2016-07-20T06:29:10.947Z,73.63
2016-07-20T06:30:10.936Z,73.73
2016-07-20T06:31:11.649Z,74.44
2016-07-20T06:32:10.924Z,73.48
2016-07-20T06:33:11.623Z,74.06
2016-07-20T06:34:11.618Z,73.77
2016-07-20T06:35:10.905Z,73.77
2016-07-20T06:36:10.893Z,73.86
2016-07-20T06:37:11.798Z,73.48
2016-07-20T06:38:11.590Z,73.58
2016-07-20T06:39:10.875Z,73.28
2016-07-20T06:40:11.595Z,72.9
2016-07-20T06:41:10.865Z,72.71
2016-07-20T06:42:10.854Z,71.36
2016-07-20T06:43:10.844Z,71.78
2016-07-20T06:44:10.840Z,71.88
2016-07-20T06:45:10.833Z,71.3
2016-07-20T06:46:11.532Z,71.48
2016-07-20T06:47:10.839Z,71.3
2016-07-20T06:48:10.811Z,72.16
2016-07-20T06:49:10.807Z,70.32
2016-07-20T06:50:11.503Z,70.72
2016-07-20T06:51:11.499Z,70.72
2016-07-20T06:52:11.492Z,71.39
2016-07-20T06:53:10.777Z,70.17
2016-07-20T06:54:10.772Z,70.17
2016-07-20T06:55:11.472Z,69.59
2016-07-20T06:56:10.756Z,68.62
2016-07-20T06:57:10.759Z,68.33
2016-07-20T06:58:11.461Z,68.91
2016-07-20T06:59:11.452Z,68.72
2016-07-20T07:00:10.737Z,69.43
2016-07-20T07:01:10.727Z,69.04
2016-07-20T07:02:11.422Z,68.66
2016-07-20T07:03:10.713Z,69.72
2016-07-20T07:04:10.706Z,69.43
2016-07-20T07:05:10.698Z,68.85
2016-07-20T07:06:10.698Z,68.17
2016-07-20T07:07:11.390Z,68.08
2016-07-20T07:08:11.388Z,68.08
2016-07-20T07:09:10.670Z,68.27
2016-07-20T07:10:11.384Z,68.3
2016-07-20T07:11:10.659Z,69.17
2016-07-20T07:12:11.359Z,69.08
2016-07-20T07:13:11.354Z,69.66
2016-07-20T07:14:10.642Z,69.17
2016-07-20T07:15:11.341Z,69.17
2016-07-20T07:16:10.626Z,68.59
2016-07-20T07:17:10.622Z,66.75
2016-07-20T07:18:10.615Z,67.18
2016-07-20T07:19:11.313Z,66.95
2016-07-20T07:20:10.600Z,66.27
2016-07-20T07:21:10.597Z,66.3
2016-07-20T07:22:10.588Z,67.56
2016-07-20T07:23:10.583Z,67.66
2016-07-20T07:24:11.279Z,66.78
2016-07-20T07:25:11.282Z,66.5
2016-07-20T07:26:11.272Z,65.34
2016-07-20T07:27:10.571Z,65.53
2016-07-20T07:28:11.260Z,64.85
2016-07-20T07:29:10.545Z,65.37
2016-07-20T07:30:10.540Z,65.56
2016-07-20T07:31:10.532Z,65.85
2016-07-20T07:32:10.531Z,65.17
2016-07-20T07:33:10.520Z,65.56
2016-07-20T07:34:10.516Z,65.17
2016-07-20T07:35:10.510Z,64.01
2016-07-20T07:36:10.502Z,63.75
2016-07-20T07:37:10.496Z,63.85
2016-07-20T07:38:11.199Z,61.85
2016-07-20T07:39:10.487Z,58.73
2016-07-20T07:40:11.197Z,55.71
2016-07-20T07:41:11.183Z,52.36
2016-07-20T07:42:10.468Z,51.43
2016-07-20T07:43:10.468Z,49.44
2016-07-20T07:44:11.167Z,48.88
2016-07-20T07:45:11.166Z,46.95
2016-07-20T07:46:10.455Z,46.17
2016-07-20T07:47:11.164Z,46.36
2016-07-20T07:48:10.458Z,46.07
2016-07-20T07:49:11.153Z,46.26
2016-07-20T07:50:10.445Z,47.14
2016-07-20T07:51:10.442Z,45.62
2016-07-20T07:52:10.440Z,44.35
2016-07-20T07:53:11.148Z,44.57
2016-07-20T07:54:10.435Z,42.54
2016-07-20T07:55:10.437Z,41.39
2016-07-20T07:56:11.141Z,41.39
2016-07-20T07:57:10.433Z,41.07
2016-07-20T07:58:10.433Z,41.39
2016-07-20T07:59:11.151Z,41.41
2016-07-20T08:00:11.141Z,38.7
2016-07-20T08:01:10.436Z,37.74
2016-07-20T08:02:11.138Z,38.07
2016-07-20T08:03:10.435Z,36.13
2016-07-20T08:04:10.436Z,35.97
2016-07-20T08:05:11.144Z,35
2016-07-20T08:06:10.438Z,35.1
2016-07-20T08:07:11.144Z,34.92
2016-07-20T08:08:11.152Z,33.95
2016-07-20T08:09:11.147Z,33.18
2016-07-20T08:10:10.441Z,33.89
2016-07-20T08:11:11.156Z,32.82
2016-07-20T08:12:11.151Z,32.32
2016-07-20T08:13:11.156Z,32.04
2016-07-20T08:14:10.446Z,32.06
2016-07-20T08:15:11.155Z,31.86
2016-07-20T08:16:10.456Z,31.57
2016-07-20T08:17:10.454Z,30.48
2016-07-20T08:18:10.455Z,30.19
2016-07-20T08:19:10.457Z,31.44
2016-07-20T08:20:11.164Z,31.24
2016-07-20T08:21:10.462Z,31.44
2016-07-20T08:22:11.172Z,31.44
2016-07-20T08:23:10.461Z,30.07
2016-07-20T08:24:10.471Z,29.99
2016-07-20T08:25:10.472Z,29.99
2016-07-20T08:26:10.474Z,30.09
2016-07-20T08:27:10.478Z,29.6
2016-07-20T08:28:11.188Z,29.21
2016-07-20T08:29:10.488Z,29.41
2016-07-20T08:30:11.193Z,28.64
2016-07-20T08:31:10.490Z,28.44
2016-07-20T08:32:10.494Z,29.43
2016-07-20T08:33:10.498Z,30.13
2016-07-20T08:34:10.496Z,28.94
2016-07-20T08:35:11.217Z,27.19
2016-07-20T08:36:11.213Z,27.01
2016-07-20T08:37:10.713Z,27.69
2016-07-20T08:38:11.225Z,27.8
2016-07-20T08:39:10.523Z,28
2016-07-20T08:40:11.227Z,26.43
2016-07-20T08:41:11.232Z,26.14
2016-07-20T08:42:11.288Z,27.55
2016-07-20T08:43:10.535Z,25.57
2016-07-20T08:44:10.541Z,24.99
2016-07-20T08:45:10.540Z,23.32
2016-07-20T08:46:11.246Z,24.2
2016-07-20T08:47:10.549Z,23.8
2016-07-20T08:48:11.257Z,23.01
2016-07-20T08:49:11.260Z,23.71
2016-07-20T08:50:10.564Z,23.59
2016-07-20T08:51:10.560Z,24.27
2016-07-20T08:52:11.269Z,26.21
2016-07-20T08:53:11.300Z,27.36
2016-07-20T08:54:11.280Z,27.73
2016-07-20T08:55:11.280Z,28.31
2016-07-20T08:56:11.291Z,28.69
2016-07-20T08:57:11.284Z,29.47
2016-07-20T08:58:10.583Z,31.31
2016-07-20T08:59:11.297Z,31.49
2016-07-20T09:00:11.293Z,30.88
2016-07-20T09:01:11.295Z,31.74
2016-07-20T09:02:10.594Z,31.43
2016-07-20T09:03:11.298Z,32.61
2016-07-20T09:04:10.598Z,32.5
2016-07-20T09:05:11.312Z,32.59
2016-07-20T09:06:10.604Z,33.28
2016-07-20T09:07:11.311Z,33.58
2016-07-20T09:08:10.604Z,33.28
2016-07-20T09:09:11.311Z,33.07
2016-07-20T09:10:10.605Z,34.15
2016-07-20T09:11:10.609Z,34.03
2016-07-20T09:12:11.320Z,34.42
2016-07-20T09:13:10.610Z,33.92
2016-07-20T09:14:10.613Z,34.7
2016-07-20T09:15:11.318Z,34.78
2016-07-20T09:16:10.608Z,34.1
2016-07-20T09:17:10.614Z,34.88
2016-07-20T09:18:11.319Z,34.88
2016-07-20T09:19:10.610Z,35.55
2016-07-20T09:20:10.614Z,34.77
2016-07-20T09:21:10.610Z,35.27
2016-07-20T09:22:10.622Z,35.65
2016-07-20T09:23:11.316Z,33.2
2016-07-20T09:24:11.318Z,33.98
2016-07-20T09:25:10.612Z,33.69
2016-07-20T09:26:11.316Z,32.71
2016-07-20T09:27:10.609Z,33.09
2016-07-20T09:28:11.317Z,32.99
2016-07-20T09:29:10.611Z,34.16
2016-07-20T09:30:10.610Z,33.29
2016-07-20T09:31:10.610Z,32.04
2016-07-20T09:32:10.611Z,33.02
2016-07-20T09:33:10.612Z,33.22
2016-07-20T09:34:11.321Z,33.31
2016-07-20T09:35:10.611Z,34.1
2016-07-20T09:36:10.611Z,32.04
2016-07-20T09:37:11.316Z,31.26
2016-07-20T09:38:10.611Z,33.61
2016-07-20T09:39:10.611Z,33.02
2016-07-20T09:40:11.333Z,32.06
2016-07-20T09:41:11.318Z,32.74
2016-07-20T09:42:11.321Z,31.19
2016-07-20T09:43:10.620Z,30.12
2016-07-20T09:44:11.320Z,30.02
2016-07-20T09:45:10.614Z,29.25
2016-07-20T09:46:10.617Z,29.25
2016-07-20T09:47:10.616Z,29.25
2016-07-20T09:48:11.328Z,30.14
2016-07-20T09:49:11.327Z,30.43
2016-07-20T09:50:10.623Z,30.53
2016-07-20T09:51:10.621Z,29.16
2016-07-20T09:52:10.622Z,28.37
2016-07-20T09:53:10.626Z,29.34
2016-07-20T09:54:10.625Z,29.34
2016-07-20T09:55:10.625Z,29.24
2016-07-20T09:56:11.332Z,29.24
2016-07-20T09:57:11.337Z,29.05
2016-07-20T09:58:10.625Z,29.91
2016-07-20T09:59:10.630Z,30.01
2016-07-20T10:00:11.337Z,31.09
2016-07-20T10:01:10.626Z,32.07
2016-07-20T10:02:11.338Z,30.99
2016-07-20T10:03:10.626Z,31.67
2016-07-20T10:04:11.335Z,31.67
2016-07-20T10:05:10.627Z,31.86
2016-07-20T10:06:11.336Z,31.19
2016-07-20T10:07:10.630Z,29.91
2016-07-20T10:08:11.337Z,29.91
2016-07-20T10:09:11.508Z,30.01
2016-07-20T10:10:10.629Z,30.98
2016-07-20T10:11:11.335Z,31.07
2016-07-20T10:12:11.334Z,30.78
2016-07-20T10:13:10.625Z,31.07
2016-07-20T10:14:10.623Z,30.19
2016-07-20T10:15:11.458Z,31.57
2016-07-20T10:16:11.333Z,30.29
2016-07-20T10:17:11.329Z,31.09
2016-07-20T10:18:10.622Z,29.13
2016-07-20T10:19:10.625Z,29.34
2016-07-20T10:20:10.627Z,28.08
2016-07-20T10:21:10.625Z,28.19
2016-07-20T10:22:10.631Z,26.54
2016-07-20T10:23:10.629Z,27.84
2016-07-20T10:24:11.340Z,26.67
2016-07-20T10:25:10.634Z,27.08
2016-07-20T10:26:11.342Z,25.99
2016-07-20T10:27:10.637Z,25.5
2016-07-20T10:28:10.644Z,25.29
2016-07-20T10:29:10.649Z,26.56
2016-07-20T10:30:10.644Z,26.84
2016-07-20T10:31:11.352Z,27.53
2016-07-20T10:32:10.652Z,27.64
2016-07-20T10:33:11.357Z,26.87
2016-07-20T10:34:10.652Z,27.47
2016-07-20T10:35:11.364Z,27.09
2016-07-20T10:36:10.660Z,26.13
2016-07-20T10:37:10.863Z,23.38
2016-07-20T10:38:11.374Z,24.96
2016-07-20T10:39:10.721Z,23.97
2016-07-20T10:40:11.433Z,22.5
2016-07-20T10:41:10.678Z,22.91
2016-07-20T10:42:10.699Z,23.22
2016-07-20T10:43:11.395Z,23.11
2016-07-20T10:44:10.693Z,22.53
2016-07-20T10:45:10.702Z,24.72
2016-07-20T10:46:10.700Z,23.04
2016-07-20T10:47:11.413Z,22.85
2016-07-20T10:48:10.711Z,22.07
2016-07-20T10:49:11.422Z,20.98
2016-07-20T10:50:10.720Z,20.7
2016-07-20T10:51:11.433Z,20.7
2016-07-20T10:52:10.728Z,22.09
2016-07-20T10:53:10.735Z,20.11
2016-07-20T10:54:11.448Z,21.31
2016-07-20T10:55:11.460Z,20.92
2016-07-20T10:56:11.463Z,21.42
2016-07-20T10:57:10.758Z,20.53
2016-07-20T10:58:10.774Z,20.24
2016-07-20T10:59:11.479Z,20.64
2016-07-20T11:00:11.487Z,21.43
2016-07-20T11:01:10.784Z,20.45
2016-07-20T11:02:11.501Z,21.15
2016-07-20T11:03:10.799Z,19.17
2016-07-20T11:04:11.512Z,19.84
2016-07-20T11:05:11.519Z,19.34
2016-07-20T11:06:11.532Z,20.7
2016-07-20T11:07:10.824Z,20.6
2016-07-20T11:08:10.831Z,20.2
2016-07-20T11:09:10.841Z,20.1
2016-07-20T11:10:11.601Z,21.4
2016-07-20T11:11:10.861Z,20.12
2016-07-20T11:12:11.569Z,19.73
2016-07-20T11:13:10.869Z,20.43
2016-07-20T11:14:10.876Z,20.64
2016-07-20T11:15:11.592Z,21.92
2016-07-20T11:16:10.889Z,18.86
2016-07-20T11:17:10.899Z,18.26
2016-07-20T11:18:11.614Z,19.34
2016-07-20T11:19:10.911Z,20.22
2016-07-20T11:20:10.922Z,20.42
2016-07-20T11:21:10.927Z,20.41
2016-07-20T11:22:10.944Z,20.11
2016-07-20T11:23:10.951Z,21.89
2016-07-20T11:24:11.665Z,20.52
2016-07-20T11:25:10.962Z,21.32
2016-07-20T11:26:10.971Z,20.64
2016-07-20T11:27:11.687Z,19.56
2016-07-20T11:28:11.690Z,19.16
2016-07-20T11:29:11.710Z,19.15
2016-07-20T11:30:10.999Z,20.34
2016-07-20T11:31:11.008Z,21.03
2016-07-20T11:32:11.018Z,20.14
2016-07-20T11:33:11.029Z,19.46
2016-07-20T11:34:11.035Z,20.15
2016-07-20T11:35:11.050Z,18.86
2016-07-20T11:36:11.761Z,18.86
2016-07-20T11:37:11.069Z,22.33
2016-07-20T11:38:11.069Z,21.44
2016-07-20T11:39:11.078Z,19.96
2016-07-20T11:40:11.085Z,17.79
2016-07-20T11:41:11.093Z,18.28
2016-07-20T11:42:11.102Z,17.6
2016-07-20T11:43:11.111Z,17.88
2016-07-20T11:44:11.116Z,18.39
2016-07-20T11:45:11.135Z,17.4
2016-07-20T11:46:11.140Z,16.71
2016-07-20T11:47:11.854Z,16.89
2016-07-20T11:48:11.862Z,17.09
2016-07-20T11:49:11.165Z,17.79
2016-07-20T11:50:11.894Z,16.5
2016-07-20T11:51:11.185Z,15.81
2016-07-20T11:52:11.195Z,16.78
2016-07-20T11:53:11.247Z,17.58
2016-07-20T11:54:11.919Z,17.58
2016-07-20T11:55:11.217Z,16.99
2016-07-20T11:56:11.947Z,15.41
2016-07-20T11:57:11.232Z,16.68
2016-07-20T11:58:11.239Z,16.99
2016-07-20T11:59:11.958Z,17.77
2016-07-20T12:00:11.964Z,16.78
2016-07-20T12:01:11.975Z,17.08
2016-07-20T12:02:11.989Z,17.38
2016-07-20T12:03:11.992Z,15.8
2016-07-20T12:04:12.007Z,18.48
2016-07-20T12:05:11.329Z,17.69
2016-07-20T12:06:12.018Z,16.61
2016-07-20T12:07:11.317Z,16.31
2016-07-20T12:08:12.039Z,16.91
2016-07-20T12:09:11.333Z,17.02
2016-07-20T12:10:12.052Z,17.02
2016-07-20T12:11:11.355Z,14.83
2016-07-20T12:12:11.357Z,15.93
2016-07-20T12:13:11.372Z,15.52
2016-07-20T12:14:11.377Z,16.31
2016-07-20T12:15:12.096Z,15.53
2016-07-20T12:16:11.394Z,17.02
2016-07-20T12:17:11.401Z,16.13
2016-07-20T12:18:11.413Z,14.94
2016-07-20T12:19:12.126Z,15.12
2016-07-20T12:20:12.199Z,16.7
2016-07-20T12:21:12.150Z,17
2016-07-20T12:22:11.443Z,16.11
2016-07-20T12:23:11.458Z,14.62
2016-07-20T12:24:11.479Z,16.01
2016-07-20T12:25:11.473Z,17.81
2016-07-20T12:26:12.213Z,15.82
2016-07-20T12:27:12.210Z,15.13
2016-07-20T12:28:12.215Z,15.42
2016-07-20T12:29:11.514Z,16.69
2016-07-20T12:30:11.520Z,15.9
2016-07-20T12:31:12.239Z,16.2
2016-07-20T12:32:11.545Z,16.82
2016-07-20T12:33:12.243Z,15.12
2016-07-20T12:34:12.251Z,15.41
2016-07-20T12:35:11.558Z,14.81
2016-07-20T12:36:11.563Z,16.09
2016-07-20T12:37:12.480Z,16.99
2016-07-20T12:38:12.295Z,16.3
2016-07-20T12:39:12.367Z,16.09
2016-07-20T12:40:12.303Z,15.11
2016-07-20T12:41:12.337Z,16.61
2016-07-20T12:42:12.680Z,15.12
2016-07-20T12:43:12.350Z,15.01
2016-07-20T12:44:12.336Z,15.52
2016-07-20T12:45:11.635Z,16.9
2016-07-20T12:46:12.379Z,16.01
2016-07-20T12:47:11.649Z,17.5
2016-07-20T12:48:12.374Z,15.12
2016-07-20T12:49:11.682Z,16.22
2016-07-20T12:50:11.679Z,15.93
2016-07-20T12:51:11.680Z,15.33
2016-07-20T12:52:11.693Z,15.13
2016-07-20T12:53:12.411Z,16.13
2016-07-20T12:54:11.706Z,16.93
2016-07-20T12:55:11.725Z,16.13